Time;durP1;ratioP1;P1;durP2;ratioP2;P2;SDS_P1;SDS_P2;PMS_P1;PMS_P2;Temp;Humidity;BMP_temperature;BMP_pressure;BME280_temperature;BME280_humidity;BME280_pressure;Samples;Min_cycle;Max_cycle;Signal;HPM_P1;HPM_P2
2022/09/01 08:10:45;;;;;;;;;;;;;;;17.10;47.23;100483.38;5067261;28;1132;-59
2022/09/01 08:13:11;;;;;;;;;;;;;;;17.01;47.52;100490.59;5051075;28;1364;-62
2022/09/01 08:15:38;;;;;;;;;;;;;;;17.01;47.41;100485.09;5067073;28;1972;-61
2022/09/01 08:18:03;;;;;;;;;;;;;;;17.00;47.42;100485.34;5051053;28;1481;-61
2022/09/01 08:20:33;;;;;;;;;;;;;;;17.08;47.24;100485.59;5049303;28;1282;-62
2022/09/01 08:23:18;;;;;;;;;;;;;;;17.01;47.37;100478.78;5051991;28;1195;-64
2022/09/01 08:25:45;;;;;;;;;;;;;;;17.07;47.09;100474.91;5058252;28;1173;-63
2022/09/01 08:28:11;;;;;;;;;;;;;;;17.02;47.47;100480.41;5076568;28;833;-61
2022/09/01 08:30:38;;;;;;;;;;;;;;;17.02;47.37;100474.94;5051632;28;1308;-61
2022/09/01 08:33:03;;;;;;;;;;;;;;;17.03;47.39;100479.31;5056788;28;754;-62
2022/09/01 08:35:30;;;;;;;;;;;;;;;17.01;47.49;100471.38;5039038;28;1986;-59
2022/09/01 08:37:56;;;;;;;;;;;;;;;17.03;47.24;100477.38;5056640;28;754;-59
2022/09/01 08:40:22;;;;;;;;;;;;;;;17.05;47.22;100475.16;5039033;28;1147;-61
2022/09/01 08:42:48;;;;;;;;;;;;;;;16.97;47.58;100461.22;5057036;28;817;-60
2022/09/01 08:45:22;;;;;;;;;;;;;;;16.96;47.48;100468.63;5038766;28;1232;-58
2022/09/01 08:47:48;;;;;;;;;;;;;;;16.96;47.56;100463.16;5056839;28;817;-62
2022/09/01 08:50:13;;;;;;;;;;;;;;;16.97;47.40;100453.81;5044948;28;1309;-62
2022/09/01 08:53:11;;;;;;;;;;;;;;;17.04;47.17;100451.56;5061748;28;1010;-62
2022/09/01 08:55:41;;;;;;;;;;;;;;;17.04;47.27;100445.22;5041266;28;1972;-59
2022/09/01 08:58:07;;;;;;;;;;;;;;;16.97;47.49;100453.81;5038578;28;1629;-64
2022/09/01 09:01:16;;;;;;;;;;;;;;;17.06;47.30;100443.84;4993244;28;1444;-63
2022/09/01 09:03:56;;;;;;;;;;;;;;;17.00;47.34;100444.16;4998938;28;834;-62
2022/09/01 09:06:29;;;;;;;;;;;;;;;17.01;47.20;100443.06;5035331;28;902;-62
2022/09/01 09:08:56;;;;;;;;;;;;;;;17.04;47.11;100446.06;5045450;28;818;-61
2022/09/01 09:11:25;;;;;;;;;;;;;;;17.04;47.32;100429.59;5042890;28;1190;-62
2022/09/01 09:13:50;;;;;;;;;;;;;;;17.07;47.10;100439.19;5060439;28;821;-61
2022/09/01 09:16:23;;;;;;;;;;;;;;;17.05;47.44;100447.69;5060272;28;1971;-62
2022/09/01 09:18:53;;;;;;;;;;;;;;;17.07;47.46;100441.94;5042767;28;886;-63
2022/09/01 09:21:25;;;;;;;;;;;;;;;17.07;47.41;100440.00;5043100;28;888;-64
2022/09/01 09:23:54;;;;;;;;;;;;;;;17.06;47.20;100441.09;5059871;28;693;-62
2022/09/01 09:26:19;;;;;;;;;;;;;;;17.07;47.13;100439.19;5042841;28;782;-61
2022/09/01 09:28:48;;;;;;;;;;;;;;;17.00;47.46;100430.41;5060103;28;799;-61
2022/09/01 09:31:30;;;;;;;;;;;;;;;17.04;47.22;100440.56;5062052;28;777;-61
2022/09/01 09:33:56;;;;;;;;;;;;;;;17.02;47.35;100434.53;5059891;28;826;-60
2022/09/01 09:36:35;;;;;;;;;;;;;;;17.09;47.27;100436.97;5042132;28;1918;-59
2022/09/01 09:39:05;;;;;;;;;;;;;;;17.11;46.96;100429.28;5073355;28;755;-56
2022/09/01 09:41:30;;;;;;;;;;;;;;;17.12;48.57;100419.91;5079487;28;823;-62
2022/09/01 09:44:14;;;;;;;;;;;;;;;17.37;50.18;100424.38;5071632;28;817;-59
2022/09/01 09:46:41;;;;;;;;;;;;;;;17.33;48.97;100425.25;5059560;28;823;-60
2022/09/01 09:49:19;;;;;;;;;;;;;;;17.34;48.50;100433.22;5066015;28;1033;-61
2022/09/01 09:51:52;;;;;;;;;;;;;;;17.27;48.47;100424.47;5059667;28;766;-60
2022/09/01 09:54:20;;;;;;;;;;;;;;;17.28;48.06;100412.38;5059712;28;861;-57
2022/09/01 09:56:46;;;;;;;;;;;;;;;17.20;47.91;100427.53;5065348;28;829;-58
2022/09/01 09:59:15;;;;;;;;;;;;;;;17.18;47.94;100420.69;5041755;28;988;-58
2022/09/01 10:01:41;;;;;;;;;;;;;;;17.22;47.82;100419.00;5042215;28;810;-58
2022/09/01 10:04:07;;;;;;;;;;;;;;;17.24;47.49;100422.31;5059239;28;887;-58
2022/09/01 10:06:33;;;;;;;;;;;;;;;17.30;47.52;100423.91;5058999;28;854;-57
2022/09/01 10:09:00;;;;;;;;;;;;;;;17.22;47.87;100413.50;5059810;28;837;-56
2022/09/01 10:11:26;;;;;;;;;;;;;;;17.34;47.55;100405.72;5058903;28;1037;-58
2022/09/01 10:13:52;;;;;;;;;;;;;;;17.23;47.66;100410.47;5041173;28;790;-58
2022/09/01 10:16:22;;;;;;;;;;;;;;;17.27;47.42;100411.53;5059183;28;1925;-57
2022/09/01 10:18:47;;;;;;;;;;;;;;;17.21;47.75;100417.41;5041350;28;866;-56
2022/09/01 10:21:17;;;;;;;;;;;;;;;17.32;47.74;100415.38;5043949;28;885;-56
2022/09/01 10:23:42;;;;;;;;;;;;;;;17.34;47.37;100418.66;5041454;28;828;-56
2022/09/01 10:26:09;;;;;;;;;;;;;;;17.23;47.49;100420.66;5058945;28;819;-57
2022/09/01 10:28:37;;;;;;;;;;;;;;;17.34;47.25;100413.16;5040822;28;782;-57
2022/09/01 10:31:03;;;;;;;;;;;;;;;17.33;47.39;100415.06;5042539;28;884;-57
2022/09/01 10:33:28;;;;;;;;;;;;;;;17.21;47.64;100414.66;5062358;28;841;-56
2022/09/01 10:35:54;;;;;;;;;;;;;;;17.29;47.64;100414.00;5058486;28;1975;-58
2022/09/01 10:38:20;;;;;;;;;;;;;;;17.21;47.69;100412.69;5040905;28;931;-58
2022/09/01 10:40:47;;;;;;;;;;;;;;;17.20;47.85;100410.25;5058705;28;846;-57
2022/09/01 10:43:28;;;;;;;;;;;;;;;17.31;47.42;100413.75;5060088;28;846;-58
2022/09/01 10:45:54;;;;;;;;;;;;;;;17.20;47.56;100413.00;5061431;28;798;-57
2022/09/01 10:48:19;;;;;;;;;;;;;;;17.29;47.40;100405.75;5043553;28;1013;-56
2022/09/01 10:51:05;;;;;;;;;;;;;;;17.26;47.44;100392.59;5062219;28;763;-56
2022/09/01 10:53:33;;;;;;;;;;;;;;;17.28;47.35;100396.72;5016092;28;1291;-56
2022/09/01 10:56:00;;;;;;;;;;;;;;;17.18;47.71;100407.78;5065865;28;1913;-57
2022/09/01 10:58:32;;;;;;;;;;;;;;;17.32;47.34;100405.22;5060683;28;912;-57
2022/09/01 11:00:59;;;;;;;;;;;;;;;17.33;47.26;100390.34;5060617;28;1390;-57
2022/09/01 11:03:25;;;;;;;;;;;;;;;17.23;47.59;100394.00;5062879;28;1406;-57
2022/09/01 11:05:57;;;;;;;;;;;;;;;17.34;47.59;100392.00;5058886;28;1390;-57
2022/09/01 11:08:26;;;;;;;;;;;;;;;17.28;47.72;100390.41;5061486;28;862;-58
2022/09/01 11:11:14;;;;;;;;;;;;;;;17.30;47.57;100387.38;5060725;28;1346;-57
2022/09/01 11:13:41;;;;;;;;;;;;;;;17.31;47.70;100389.81;5063585;28;1211;-57
2022/09/01 11:16:26;;;;;;;;;;;;;;;17.34;47.55;100392.00;5059769;28;1980;-57
2022/09/01 11:18:51;;;;;;;;;;;;;;;17.38;47.18;100395.00;5077126;28;754;-57
2022/09/01 11:21:20;;;;;;;;;;;;;;;17.23;47.73;100390.44;5066146;28;801;-56
2022/09/01 11:23:45;;;;;;;;;;;;;;;17.23;47.49;100379.44;5057189;28;773;-57
2022/09/01 11:29:51;;;;;;;;;;;;;;;17.29;47.30;100392.03;5075022;28;608;-57
2022/09/01 11:32:17;;;;;;;;;;;;;;;17.30;47.44;100390.91;5070356;28;883;-57
2022/09/01 11:34:43;;;;;;;;;;;;;;;17.27;47.46;100389.56;5058103;28;1964;-57
2022/09/01 11:37:13;;;;;;;;;;;;;;;17.29;47.46;100392.03;5070610;28;1398;-57
2022/09/01 11:39:40;;;;;;;;;;;;;;;17.38;47.30;100386.75;5040062;28;842;-57
2022/09/01 11:42:15;;;;;;;;;;;;;;;17.25;47.31;100404.69;5057538;28;806;-57
2022/09/01 11:44:40;;;;;;;;;;;;;;;17.22;47.40;100397.03;5059398;28;878;-57
2022/09/01 11:47:26;;;;;;;;;;;;;;;17.31;47.49;100384.31;5057682;28;896;-57
2022/09/01 11:49:51;;;;;;;;;;;;;;;17.25;47.65;100393.69;5063191;28;1060;-57
2022/09/01 11:52:17;;;;;;;;;;;;;;;17.31;47.45;100394.50;5057925;28;758;-57
2022/09/01 11:54:45;;;;;;;;;;;;;;;17.31;47.04;100403.56;5039773;28;1974;-57
2022/09/01 11:57:26;;;;;;;;;;;;;;;17.31;47.27;100402.75;5061723;28;762;-57
2022/09/01 11:59:51;;;;;;;;;;;;;;;17.33;47.24;100398.59;5057317;28;839;-57
2022/09/01 12:02:18;;;;;;;;;;;;;;;17.27;47.26;100394.25;5057187;28;826;-57
2022/09/01 12:04:43;;;;;;;;;;;;;;;17.26;47.24;100387.09;5057324;28;790;-57
2022/09/01 12:07:13;;;;;;;;;;;;;;;17.22;47.36;100384.13;5057547;28;806;-57
2022/09/01 12:09:42;;;;;;;;;;;;;;;17.28;47.30;100387.66;5063185;28;782;-57
2022/09/01 12:12:08;;;;;;;;;;;;;;;17.28;47.30;100382.16;5039329;28;1088;-58
2022/09/01 12:14:33;;;;;;;;;;;;;;;17.26;47.25;100393.44;5039097;28;1961;-57
2022/09/01 12:16:59;;;;;;;;;;;;;;;17.22;47.62;100383.28;5057258;28;891;-55
2022/09/01 12:19:26;;;;;;;;;;;;;;;14.43;55.33;100384.97;5056923;28;1355;-55
2022/09/01 12:21:55;;;;;;;;;;;;;;;16.47;48.91;100389.81;5058692;28;837;-58
2022/09/01 12:24:21;;;;;;;;;;;;;;;16.74;48.11;100394.88;5057172;28;754;-57
2022/09/01 12:26:48;;;;;;;;;;;;;;;16.90;47.87;100384.63;5056875;28;861;-57
2022/09/01 12:29:13;;;;;;;;;;;;;;;16.98;47.50;100383.22;5056930;28;819;-57
2022/09/01 12:31:39;;;;;;;;;;;;;;;17.00;47.56;100384.56;5039123;28;761;-57
2022/09/01 12:34:05;;;;;;;;;;;;;;;17.02;47.41;100393.31;5060323;28;860;-57
2022/09/01 12:36:33;;;;;;;;;;;;;;;17.04;47.55;100393.03;5038517;28;1987;-57
2022/09/01 12:39:17;;;;;;;;;;;;;;;17.00;47.78;100398.31;5056512;28;1341;-57
2022/09/01 12:41:43;;;;;;;;;;;;;;;16.99;47.78;100404.91;5056057;28;1393;-57
2022/09/01 12:44:28;;;;;;;;;;;;;;;17.00;47.75;100401.06;5065453;28;750;-57
2022/09/01 12:46:53;;;;;;;;;;;;;;;17.06;47.69;100405.38;5058214;28;814;-57
2022/09/01 12:49:23;;;;;;;;;;;;;;;17.12;47.49;100413.59;5066713;28;997;-58
2022/09/01 12:51:51;;;;;;;;;;;;;;;17.12;47.49;100425.41;5075675;28;959;-56
2022/09/01 12:54:22;;;;;;;;;;;;;;;17.13;47.52;100420.75;5057822;28;1242;-56
2022/09/01 12:56:49;;;;;;;;;;;;;;;17.13;47.14;100420.75;5052757;28;1959;-56
2022/09/01 12:59:20;;;;;;;;;;;;;;;17.07;47.29;100430.94;5039173;28;1076;-56
2022/09/01 13:01:46;;;;;;;;;;;;;;;17.20;46.95;100437.72;5055782;28;854;-56
2022/09/01 13:04:20;;;;;;;;;;;;;;;17.08;47.19;100441.66;5055472;28;925;-61
2022/09/01 13:06:46;;;;;;;;;;;;;;;17.04;46.94;100457.06;5056535;28;726;-60
2022/09/01 13:09:11;;;;;;;;;;;;;;;17.08;46.81;100458.13;5059489;28;862;-61
2022/09/01 13:11:36;;;;;;;;;;;;;;;17.05;46.90;100464.16;5060121;28;1082;-62
2022/09/01 13:14:02;;;;;;;;;;;;;;;17.00;46.98;100464.22;5063946;28;802;-59
2022/09/01 13:16:27;;;;;;;;;;;;;;;17.06;46.60;100470.50;5056149;28;1901;-59
2022/09/01 13:18:59;;;;;;;;;;;;;;;17.03;46.87;100465.59;5042578;28;1180;-56
2022/09/01 13:21:26;;;;;;;;;;;;;;;17.07;46.57;100461.16;5062919;28;1210;-56
2022/09/01 13:23:51;;;;;;;;;;;;;;;17.04;46.78;100461.72;5067042;28;1281;-56
2022/09/01 13:26:17;;;;;;;;;;;;;;;17.10;46.44;100455.09;5064982;28;1219;-56
2022/09/01 13:28:44;;;;;;;;;;;;;;;17.08;46.79;100462.78;5061423;28;1242;-55
2022/09/01 13:31:09;;;;;;;;;;;;;;;17.01;46.69;100463.13;5063796;28;1183;-55
2022/09/01 13:33:35;;;;;;;;;;;;;;;17.00;46.71;100453.25;5063776;28;1124;-55
2022/09/01 13:36:01;;;;;;;;;;;;;;;17.04;46.50;100457.06;5064774;28;1977;-56
2022/09/01 13:38:26;;;;;;;;;;;;;;;17.05;46.42;100458.69;5063390;28;1318;-57
2022/09/01 13:40:52;;;;;;;;;;;;;;;17.08;46.52;100458.13;5062234;28;1301;-57
2022/09/01 13:43:18;;;;;;;;;;;;;;;17.09;46.36;100470.75;5064626;28;1237;-57
2022/09/01 13:45:44;;;;;;;;;;;;;;;17.05;46.40;100469.66;5059546;28;1191;-58
2022/09/01 13:48:09;;;;;;;;;;;;;;;17.05;46.35;100469.66;5060291;28;946;-57
2022/09/01 13:50:35;;;;;;;;;;;;;;;16.98;46.59;100474.66;5059646;28;798;-57
2022/09/01 13:53:00;;;;;;;;;;;;;;;17.06;46.35;100479.56;5059177;28;859;-57
2022/09/01 13:55:29;;;;;;;;;;;;;;;17.05;46.08;100469.66;5059117;28;1910;-57
2022/09/01 13:57:55;;;;;;;;;;;;;;;17.01;46.50;100449.41;5064415;28;777;-52
2022/09/01 14:00:23;;;;;;;;;;;;;;;17.03;46.14;100455.41;5059166;28;834;-53
2022/09/01 14:02:51;;;;;;;;;;;;;;;17.02;46.41;100442.78;5058568;28;1527;-53
2022/09/01 14:05:24;;;;;;;;;;;;;;;17.12;46.06;100435.56;5059187;28;754;-56
2022/09/01 14:07:50;;;;;;;;;;;;;;;17.01;46.48;100441.16;5059247;28;865;-55
2022/09/01 14:10:15;;;;;;;;;;;;;;;17.07;46.29;100429.00;5064978;28;1308;-55
2022/09/01 14:12:45;;;;;;;;;;;;;;;16.96;46.29;100432.94;5066761;28;1218;-55
2022/09/01 14:15:10;;;;;;;;;;;;;;;16.97;46.25;100429.09;5065564;28;1990;-57
2022/09/01 14:17:36;;;;;;;;;;;;;;;17.09;45.96;100421.28;5063078;28;1041;-56
2022/09/01 14:20:02;;;;;;;;;;;;;;;17.00;46.29;100420.28;5059735;28;931;-58
2022/09/01 14:22:28;;;;;;;;;;;;;;;17.05;46.08;100414.72;5060783;28;927;-58
2022/09/01 14:24:54;;;;;;;;;;;;;;;17.01;46.21;100413.69;5057956;28;866;-58
2022/09/01 14:27:19;;;;;;;;;;;;;;;16.98;46.30;100402.44;5057539;28;994;-59
2022/09/01 14:29:49;;;;;;;;;;;;;;;17.06;46.29;100405.38;5058101;28;1501;-58
2022/09/01 14:32:15;;;;;;;;;;;;;;;16.98;46.58;100403.25;5058720;28;846;-58
2022/09/01 14:34:41;;;;;;;;;;;;;;;17.04;46.22;100404.88;5061548;28;1980;-54
2022/09/01 14:37:06;;;;;;;;;;;;;;;17.04;46.55;100402.13;5077309;28;778;-56
2022/09/01 14:39:32;;;;;;;;;;;;;;;17.07;46.40;100407.03;5076906;28;714;-58
2022/09/01 14:41:58;;;;;;;;;;;;;;;16.98;46.50;100407.94;5058262;28;838;-57
2022/09/01 14:44:23;;;;;;;;;;;;;;;17.02;46.30;100409.81;5058449;28;949;-57
2022/09/01 14:46:49;;;;;;;;;;;;;;;17.01;46.37;100408.19;5064260;28;781;-55
2022/09/01 14:49:15;;;;;;;;;;;;;;;17.06;46.21;100421.88;5058918;28;1010;-55
2022/09/01 14:51:41;;;;;;;;;;;;;;;17.09;46.41;100410.31;5058177;28;843;-56
2022/09/01 14:54:06;;;;;;;;;;;;;;;17.10;46.13;100419.38;5058804;28;1397;-56
2022/09/01 14:56:32;;;;;;;;;;;;;;;16.99;46.35;100426.06;5063529;28;1905;-56
2022/09/01 14:58:59;;;;;;;;;;;;;;;17.08;46.15;100425.16;5062709;28;861;-56
2022/09/01 15:01:25;;;;;;;;;;;;;;;17.01;46.47;100421.94;5058249;28;757;-57
2022/09/01 15:03:50;;;;;;;;;;;;;;;17.11;46.77;100423.78;5058038;28;847;-59
2022/09/01 15:06:16;;;;;;;;;;;;;;;17.13;46.82;100413.31;5066065;28;901;-63
2022/09/01 15:08:42;;;;;;;;;;;;;;;17.07;46.60;100404.28;5070213;28;1390;-59
2022/09/01 15:11:11;;;;;;;;;;;;;;;17.13;46.67;100423.50;5068417;28;1063;-59
2022/09/01 15:13:37;;;;;;;;;;;;;;;17.06;46.86;100421.88;5076979;28;826;-59
2022/09/01 15:16:03;;;;;;;;;;;;;;;17.10;46.64;100414.69;5076842;28;1909;-57
2022/09/01 15:18:29;;;;;;;;;;;;;;;17.18;46.42;100417.94;5076935;28;920;-58
2022/09/01 15:20:54;;;;;;;;;;;;;;;17.17;46.47;100416.31;5074462;28;1196;-58
2022/09/01 15:23:20;;;;;;;;;;;;;;;17.08;46.62;100421.59;5069856;28;1188;-61
2022/09/01 15:25:46;;;;;;;;;;;;;;;17.04;46.79;100421.34;5060580;28;777;-62
2022/09/01 15:28:11;;;;;;;;;;;;;;;17.14;46.57;100422.38;5058005;28;843;-62
2022/09/01 15:30:38;;;;;;;;;;;;;;;17.09;46.54;100421.28;5057613;28;858;-56
2022/09/01 15:33:03;;;;;;;;;;;;;;;17.10;46.62;100417.44;5057582;28;1424;-56
2022/09/01 15:35:29;;;;;;;;;;;;;;;17.14;46.51;100423.19;5070990;28;1990;-62
2022/09/01 15:37:54;;;;;;;;;;;;;;;17.20;46.24;100421.25;5071742;28;876;-62
2022/09/01 15:40:21;;;;;;;;;;;;;;;17.04;46.58;100424.09;5057790;28;1460;-58
2022/09/01 15:42:46;;;;;;;;;;;;;;;17.12;46.73;100427.34;5057333;28;838;-58
2022/09/01 15:45:13;;;;;;;;;;;;;;;17.10;46.69;100422.94;5057183;28;821;-58
2022/09/01 15:47:39;;;;;;;;;;;;;;;17.18;46.66;100426.19;5072420;28;897;-59
2022/09/01 15:50:05;;;;;;;;;;;;;;;17.15;46.43;100427.56;5075957;28;950;-60
2022/09/01 15:52:31;;;;;;;;;;;;;;;17.19;46.61;100427.84;5066932;28;1417;-57
2022/09/01 15:54:57;;;;;;;;;;;;;;;17.09;46.75;100425.97;5070044;28;1909;-57
2022/09/01 15:57:22;;;;;;;;;;;;;;;17.19;48.06;100430.59;5062497;28;1314;-62
2022/09/01 15:59:48;;;;;;;;;;;;;;;17.38;49.41;100430.72;5059818;28;1016;-55
2022/09/01 16:02:16;;;;;;;;;;;;;;;17.48;51.19;100435.31;5055813;28;870;-55
2022/09/01 16:04:42;;;;;;;;;;;;;;;15.41;58.40;100435.28;5057375;28;2523;-55
2022/09/01 16:07:07;;;;;;;;;;;;;;;16.31;55.26;100433.75;5062131;28;1995;-56
2022/09/01 16:09:32;;;;;;;;;;;;;;;17.03;52.31;100433.44;5057028;28;2121;-58
2022/09/01 16:11:58;;;;;;;;;;;;;;;17.21;51.38;100439.38;5063455;28;2206;-56
2022/09/01 16:14:23;;;;;;;;;;;;;;;17.27;50.75;100447.25;5064265;28;2090;-55
2022/09/01 16:16:54;;;;;;;;;;;;;;;17.31;50.20;100446.72;5061429;28;1980;-56
2022/09/01 16:19:27;;;;;;;;;;;;;;;17.34;50.19;100449.69;5049947;28;1989;-53
2022/09/01 16:22:12;;;;;;;;;;;;;;;17.41;49.77;100455.69;5064528;28;1643;-55
2022/09/01 16:24:42;;;;;;;;;;;;;;;17.28;49.99;100454.41;5040375;28;771;-55
2022/09/01 16:27:09;;;;;;;;;;;;;;;15.08;56.33;100451.13;5060852;28;1202;-52
2022/09/01 16:29:54;;;;;;;;;;;;;;;16.76;50.91;100451.13;5043800;28;1371;-55
2022/09/01 16:32:22;;;;;;;;;;;;;;;17.05;50.08;100452.38;5056404;28;1301;-53
2022/09/01 16:34:47;;;;;;;;;;;;;;;17.28;49.61;100459.09;5069961;28;1906;-57
2022/09/01 16:37:36;;;;;;;;;;;;;;;17.23;49.28;100459.94;5060633;28;1214;-55
2022/09/01 16:40:02;;;;;;;;;;;;;;;14.52;55.59;100459.97;5056078;28;826;-54
2022/09/01 16:42:49;;;;;;;;;;;;;;;15.91;51.23;100458.28;5056397;28;829;-54
2022/09/01 16:45:14;;;;;;;;;;;;;;;16.63;48.37;100461.91;5056283;28;826;-56
2022/09/01 16:47:50;;;;;;;;;;;;;;;16.65;48.23;100470.69;5059358;28;1007;-55
2022/09/01 16:50:34;;;;;;;;;;;;;;;16.81;47.63;100469.50;5071805;28;2343;-54
2022/09/01 16:53:02;;;;;;;;;;;;;;;16.82;47.87;100473.09;5056485;28;833;-53
2022/09/01 16:55:46;;;;;;;;;;;;;;;16.80;47.59;100478.03;5055982;28;1957;-53
2022/09/01 16:58:21;;;;;;;;;;;;;;;16.79;47.64;100481.88;5056976;28;1253;-51
2022/09/01 17:00:52;;;;;;;;;;;;;;;16.83;47.22;100477.47;5046692;28;861;-54
2022/09/01 17:03:18;;;;;;;;;;;;;;;16.79;47.46;100482.72;5055915;28;862;-53
2022/09/01 17:06:01;;;;;;;;;;;;;;;16.87;47.20;100484.03;5038212;28;782;-56
2022/09/01 17:08:26;;;;;;;;;;;;;;;16.85;46.99;100497.25;5051451;28;1519;-55
2022/09/01 17:11:03;;;;;;;;;;;;;;;16.94;46.90;100503.78;5068238;28;1192;-54
2022/09/01 17:13:46;;;;;;;;;;;;;;;16.88;46.88;100515.88;5075463;28;771;-53
2022/09/01 17:16:13;;;;;;;;;;;;;;;16.84;47.10;100512.06;5074797;28;1977;-55
2022/09/01 17:18:58;;;;;;;;;;;;;;;16.87;46.75;100517.81;5074876;28;854;-59
2022/09/01 17:21:33;;;;;;;;;;;;;;;16.91;46.58;100518.94;5063822;28;2426;-54
2022/09/01 17:24:27;;;;;;;;;;;;;;;16.82;46.69;100525.28;5061479;28;1359;-56
2022/09/01 17:26:54;;;;;;;;;;;;;;;16.91;46.65;100515.34;5056149;28;1442;-56
2022/09/01 17:29:24;;;;;;;;;;;;;;;16.87;46.56;100525.22;5042133;28;785;-54
2022/09/01 17:31:56;;;;;;;;;;;;;;;16.87;46.51;100519.72;5042647;28;802;-55
2022/09/01 17:34:40;;;;;;;;;;;;;;;16.85;46.76;100520.00;5061105;28;822;-57
2022/09/01 17:37:06;;;;;;;;;;;;;;;16.85;46.53;100530.19;5059709;28;797;-60
2022/09/01 17:39:31;;;;;;;;;;;;;;;16.85;46.64;100532.94;5059146;28;855;-56
2022/09/01 17:42:35;;;;;;;;;;;;;;;16.93;46.27;100535.13;5059826;28;763;-53
2022/09/01 17:45:08;;;;;;;;;;;;;;;16.87;46.44;100533.47;4976221;28;1353;-57
2022/09/01 17:47:53;;;;;;;;;;;;;;;16.94;46.40;100528.50;4977788;28;819;-54
2022/09/01 17:50:24;;;;;;;;;;;;;;;16.86;46.33;100531.84;5039861;28;2270;-55
2022/09/01 17:53:12;;;;;;;;;;;;;;;16.80;46.42;100543.94;5059121;28;790;-56
2022/09/01 17:56:04;;;;;;;;;;;;;;;16.88;46.23;100537.84;5018986;28;1977;-58
2022/09/01 17:58:53;;;;;;;;;;;;;;;16.77;46.20;100539.81;5067379;28;992;-55
2022/09/01 18:01:21;;;;;;;;;;;;;;;16.86;45.97;100538.16;5041048;28;770;-54
2022/09/01 18:03:57;;;;;;;;;;;;;;;16.83;46.40;100543.38;5058952;28;818;-53
2022/09/01 18:06:31;;;;;;;;;;;;;;;16.89;46.20;100542.28;5059376;28;848;-53
2022/09/01 18:08:59;;;;;;;;;;;;;;;16.87;45.90;100537.06;5046194;28;1270;-54
2022/09/01 18:11:26;;;;;;;;;;;;;;;16.79;46.24;100536.78;5066808;28;1193;-53
2022/09/01 18:13:52;;;;;;;;;;;;;;;16.89;46.29;100536.78;5052976;28;837;-56
2022/09/01 18:16:19;;;;;;;;;;;;;;;16.85;46.32;100539.25;5076881;28;1983;-54
2022/09/01 18:18:47;;;;;;;;;;;;;;;16.82;46.05;100547.25;5066079;28;1053;-54
2022/09/01 18:21:16;;;;;;;;;;;;;;;16.89;45.89;100553.28;5041866;28;2453;-54
2022/09/01 18:23:42;;;;;;;;;;;;;;;16.82;46.20;100552.72;5061981;28;784;-55
2022/09/01 18:26:15;;;;;;;;;;;;;;;16.82;46.07;100555.47;5058407;28;917;-53
2022/09/01 18:28:40;;;;;;;;;;;;;;;16.76;46.08;100560.16;5058729;28;778;-50
2022/09/01 18:31:21;;;;;;;;;;;;;;;16.74;46.18;100559.59;5058535;28;794;-53
2022/09/01 18:34:00;;;;;;;;;;;;;;;16.80;45.86;100565.91;5044089;28;1436;-55
2022/09/01 18:36:31;;;;;;;;;;;;;;;16.85;45.96;100557.66;5046036;28;1935;-57
2022/09/01 18:38:59;;;;;;;;;;;;;;;16.72;46.44;100564.56;5058592;28;810;-55
2022/09/01 18:41:27;;;;;;;;;;;;;;;16.72;45.95;100564.56;5057849;28;807;-53
2022/09/01 18:44:16;;;;;;;;;;;;;;;16.79;46.24;100554.09;5058048;28;846;-56
2022/09/01 18:46:59;;;;;;;;;;;;;;;16.79;45.93;100559.59;5049442;28;1327;-53
2022/09/01 18:49:28;;;;;;;;;;;;;;;16.72;46.25;100559.88;5044635;28;1085;-55
2022/09/01 18:51:57;;;;;;;;;;;;;;;16.81;46.04;100556.56;5065462;28;2535;-55
2022/09/01 18:54:22;;;;;;;;;;;;;;;16.77;45.88;100570.03;5044879;28;922;-54
2022/09/01 18:56:48;;;;;;;;;;;;;;;16.74;45.94;100567.84;5067823;28;1976;-57
2022/09/01 18:59:22;;;;;;;;;;;;;;;16.74;45.84;100571.41;5076772;28;869;-56
2022/09/01 19:02:06;;;;;;;;;;;;;;;16.72;45.84;100570.06;5062615;28;835;-54
2022/09/01 19:04:34;;;;;;;;;;;;;;;16.70;46.21;100564.00;5058132;28;925;-56
2022/09/01 19:07:06;;;;;;;;;;;;;;;16.77;46.07;100561.78;5058067;28;769;-55
2022/09/01 19:09:33;;;;;;;;;;;;;;;16.75;45.79;100567.56;5057654;28;813;-55
2022/09/01 19:18:58;;;;;;;;;;;;;;;16.67;45.86;100579.13;5571595;23;8477;-53
2022/09/01 19:21:25;;;;;;;;;;;;;;;16.63;46.05;100578.03;4869722;29;2419;-54
2022/09/01 19:24:02;;;;;;;;;;;;;;;17.37;47.17;100572.78;4880604;29;1844;-62
2022/09/01 19:26:30;;;;;;;;;;;;;;;16.99;47.74;100575.19;4876596;29;1799;-60
2022/09/01 19:28:56;;;;;;;;;;;;;;;16.90;47.44;100569.47;4875070;29;1899;-60
2022/09/01 19:31:33;;;;;;;;;;;;;;;16.92;47.02;100561.75;4872097;29;1965;-58
2022/09/01 19:34:05;;;;;;;;;;;;;;;16.88;46.85;100573.56;4883079;29;1952;-60
2022/09/01 19:36:36;;;;;;;;;;;;;;;16.88;46.41;100581.81;4871421;29;1971;-60
2022/09/01 19:39:03;;;;;;;;;;;;;;;16.93;46.11;100579.88;4871332;29;1111;-60
2022/09/01 19:41:51;;;;;;;;;;;;;;;16.87;46.08;100577.41;4882376;29;1056;-58
2022/09/01 19:44:34;;;;;;;;;;;;;;;17.53;46.89;100583.69;4837396;29;1233;-60
2022/09/01 19:47:03;;;;;;;;;;;;;;;17.25;47.78;100588.78;4864582;29;970;-59
2022/09/01 19:49:31;;;;;;;;;;;;;;;17.08;47.41;100586.41;4871618;29;1317;-57
2022/09/01 19:52:03;;;;;;;;;;;;;;;17.14;47.03;100587.22;4878216;29;996;-57
2022/09/01 19:54:31;;;;;;;;;;;;;;;16.94;47.03;100583.44;4880536;29;1020;-59
2022/09/01 19:57:03;;;;;;;;;;;;;;;16.92;46.49;100574.69;4878492;29;1914;-64
2022/09/01 19:59:40;;;;;;;;;;;;;;;16.93;46.52;100579.06;4870631;29;1088;-63
2022/09/01 20:02:10;;;;;;;;;;;;;;;16.89;46.36;100584.28;4866389;29;1131;-62
2022/09/01 20:04:47;;;;;;;;;;;;;;;16.77;46.35;100587.34;4875723;29;1021;-61
2022/09/01 20:07:14;;;;;;;;;;;;;;;16.90;46.08;100593.34;4873353;29;2287;-64
2022/09/01 20:09:42;;;;;;;;;;;;;;;16.95;45.97;100589.78;4872907;29;915;-61
2022/09/01 20:12:11;;;;;;;;;;;;;;;16.84;45.85;100594.44;4869686;29;973;-61
2022/09/01 20:15:08;;;;;;;;;;;;;;;17.78;47.10;100586.28;4872031;29;1433;-63
2022/09/01 20:17:40;;;;;;;;;;;;;;;17.27;47.31;100592.09;4842827;29;1660;-62
2022/09/01 20:20:10;;;;;;;;;;;;;;;17.08;47.10;100595.50;4880537;29;1126;-61
2022/09/01 20:22:50;;;;;;;;;;;;;;;17.21;46.44;100594.06;4878988;29;889;-61
2022/09/01 20:25:19;;;;;;;;;;;;;;;17.04;46.40;100599.06;4881308;29;1148;-61
2022/09/01 20:27:45;;;;;;;;;;;;;;;16.91;46.62;100592.25;4882201;29;1162;-62
2022/09/01 20:30:12;;;;;;;;;;;;;;;17.01;45.88;100594.13;4870089;29;1088;-62
2022/09/01 20:32:50;;;;;;;;;;;;;;;16.95;46.22;100589.78;4877511;29;977;-62
2022/09/01 20:35:29;;;;;;;;;;;;;;;16.81;46.28;100601.31;4868224;29;1907;-62
2022/09/01 20:37:55;;;;;;;;;;;;;;;16.86;46.01;100592.25;4879994;29;1166;-61
2022/09/01 20:40:25;;;;;;;;;;;;;;;16.90;45.86;100605.19;4874499;29;1369;-61
2022/09/01 20:43:09;;;;;;;;;;;;;;;16.79;45.96;100603.53;4878394;29;1071;-60
2022/09/01 20:45:35;;;;;;;;;;;;;;;16.79;45.87;100602.69;4865819;29;1056;-61
2022/09/01 20:48:02;;;;;;;;;;;;;;;16.84;45.76;100606.25;4878578;29;1157;-61
2022/09/01 20:50:31;;;;;;;;;;;;;;;16.84;45.79;100603.50;4882464;29;1045;-61
2022/09/01 20:52:56;;;;;;;;;;;;;;;16.78;45.70;100607.38;4880406;29;1156;-62
2022/09/01 20:55:27;;;;;;;;;;;;;;;16.83;45.54;100599.13;4864826;29;1895;-62
2022/09/01 20:58:00;;;;;;;;;;;;;;;16.87;45.61;100600.22;4871719;29;966;-61
2022/09/01 21:00:26;;;;;;;;;;;;;;;16.82;45.47;100605.72;4865757;29;989;-61
2022/09/01 21:03:11;;;;;;;;;;;;;;;16.78;45.68;100607.38;4876614;29;993;-61
2022/09/01 21:05:44;;;;;;;;;;;;;;;16.71;45.61;100601.34;4867486;29;1060;-61
2022/09/01 21:08:13;;;;;;;;;;;;;;;16.70;45.66;100605.19;4879023;29;1020;-61
2022/09/01 21:10:59;;;;;;;;;;;;;;;17.57;46.55;100596.63;4873282;29;990;-61
2022/09/01 21:13:31;;;;;;;;;;;;;;;17.07;47.42;100604.84;4878752;29;1183;-62
2022/09/01 21:15:56;;;;;;;;;;;;;;;16.92;46.63;100593.91;4874543;29;1903;-62
2022/09/01 21:18:35;;;;;;;;;;;;;;;17.00;46.43;100587.84;4870201;29;1022;-63
2022/09/01 21:21:25;;;;;;;;;;;;;;;16.95;46.05;100604.31;4871819;29;1041;-63
2022/09/01 21:23:50;;;;;;;;;;;;;;;16.86;46.18;100598.56;4871250;29;1001;-61
2022/09/01 21:26:16;;;;;;;;;;;;;;;16.97;45.63;100588.41;4876911;29;1005;-62
2022/09/01 21:28:41;;;;;;;;;;;;;;;16.85;45.74;100593.34;4875866;29;981;-61